This is the latest recevied weather packets stored in our database for station/object K4NSC-13. If no packets are shown the sender has not sent any weather packets the latest 10 day(s).
| Time | Temp. | Humidity | Pressure | Rain* | Wind** | Luminosity | Snow |
|---|---|---|---|---|---|---|---|
| 1777509367 | 25° C | 72% | 1009 hPa | 0 mm | - | 0 W/m² | - |
| 1777502722 | 27.78° C | 63% | 1008.9 hPa | 0 mm | - | 151 W/m² | - |
| 1777501522 | 28.33° C | 62% | 1008.7 hPa | 0 mm | - | 207 W/m² | - |
| 1777500322 | 28.33° C | 62% | 1008.9 hPa | 0 mm | - | 291 W/m² | - |
| 1777492518 | 26.67° C | 66% | 1010.6 hPa | 0 mm | - | 377 W/m² | - |
| 1777490120 | 26.11° C | 65% | 1011.1 hPa | 0 mm | - | 310 W/m² | - |
| 1777488319 | 26.67° C | 64% | 1011.5 hPa | 0 mm | - | 897 W/m² | - |
| 1777484720 | 25° C | 69% | 1012.3 hPa | 0 mm | - | 363 W/m² | - |
| 1777482921 | 25.56° C | 67% | 1012.7 hPa | 0 mm | - | 577 W/m² | - |
| 1777477542 | 22.22° C | 78% | 1014.6 hPa | 0 mm | - | 522 W/m² | - |
| 1777474522 | 21.67° C | 82% | 1015.1 hPa | 0 mm | - | 471 W/m² | - |
| 1777470321 | 18.33° C | 91% | 1015.4 hPa | 0 mm | - | 324 W/m² | - |
| 1777469118 | 18.33° C | 92% | 1015.9 hPa | 0 mm | - | 149 W/m² | - |
| 1777465521 | 17.22° C | 93% | 1015.7 hPa | 0 mm | - | 45 W/m² | - |
| 1777464322 | 17.22° C | 92% | 1015.8 hPa | 0 mm | - | 37 W/m² | - |
| 1777463122 | 17.22° C | 92% | 1015.9 hPa | 0 mm | - | 21 W/m² | - |
| 1777458923 | 15.56° C | 96% | 1016 hPa | 0 mm | - | 1 W/m² | - |
| 1777448126 | 15° C | 95% | 1016.4 hPa | 0 mm | - | 0 W/m² | - |
| 1777445767 | 15.56° C | 94% | 1015.7 hPa | 0 mm | - | 0 W/m² | - |
| 1777444527 | 15.56° C | 94% | 1015.6 hPa | 0 mm | - | 0 W/m² | - |
| 1777443929 | 15.56° C | 94% | 1015.9 hPa | 0 mm | - | 0 W/m² | - |
| 1777441528 | 16.11° C | 93% | 1016.8 hPa | 0 mm | - | 0 W/m² | - |
| 1777439729 | 16.67° C | 91% | 1017.2 hPa | 0 mm | - | 0 W/m² | - |
| 1777439128 | 16.67° C | 91% | 1017.1 hPa | 0 mm | - | 0 W/m² | - |
| 1777438528 | 16.67° C | 91% | 1017.5 hPa | 0 mm | - | 0 W/m² | - |
* Rain latest hour (hover to see other rain measurements)
** Current wind speed in m/s (hover to see current wind gust speed)